Accueil
METAR-TAF:

METAR-TAF

Aéroports :

Aéroport international de Kuching

Kuching, Malaisie

latitude: 01-29N, longitude: 110-20E, altitude: 27 m

Observation

Le bulletin a été fait il y a 35 minutes, à 14:30 UTC
Vent 3 kt de ouest/sud-ouest, variant entre sud/sud-ouest et nord-ouest
Température 26°C
Humidité 94%
Pression 1011 hPa
Visibilité 10 km ou plus
Quelques nuages à une hauteur de 1500 ft, Cumulonimbus.
Nuages épars à une hauteur de 2000 ft
Nuages fragmentés à une hauteur de 15000 ft

METAR: WBGG 261430Z 25003KT 210V320 9999 FEW015CB SCT020 BKN150 26/25 Q1011 NOSIG

Heure: 23:05 (15:05 UTC)

Prévision

Le bulletin a été fait il y a 4 heures et 5 minutes, à 11:00 UTC
Prévision valable du 26 à 12 UTC au 27 à 12 UTC
Vent 3 kt de direction variable
Visibilité 10 km ou plus
Nuages épars à une hauteur de 1600 ft

TAF: WBGG 261100Z 2612/2712 VRB03KT 9999 SCT016

Observations et prévisions météorologiques de plus de 4000 aéroports (messages METAR et TAF).

Les stations disponibles sont représentées par des disques jaunes et rouges sur la carte.

Passer la souris dessus pour voir le nom de la station.

Cliquer dessus pour voir les observations et prévisions météorologiques.

Pour changer de carte: cliquez sur les boutons verts avec une croix noire pour zoomer, sur le bouton vert avec un tiret pour effectuer un zoom arrière, ou sur les flèches vertes pour les cartes adjacentes.


METAR-TAF: